Aviation Digital Data Service (ADDS)

Output produced by METARs form (1256 UTC 21 February 2018)
found at http://www.aviationweather.gov/adds/metars/
 
EDAC 211250Z 04006KT 360V090 8000 FEW027 01/M05 Q1023
EDMA 211250Z 36005KT 330V030 4500 BR OVC011 M02/M04 Q1017
EDVE 211250Z 09008KT 040V120 9999 FEW031 BKN170 03/M06 Q1026
EDDW 211250Z 07007KT 040V100 9999 FEW037 BKN250 04/M04 Q1027 NOSIG
ETSB 211220Z 04013KT 9999 FEW240 01/M06 Q1020 BLU+BLU+
ETHB 211220Z 06010KT 9999 FEW020 BKN150 02/M04 Q1026 BLU BLU
ETHC 211220Z 08009KT 9999 SCT036 SCT160 BKN260 03/M07 Q1026 BLU+BLU+
ETND 211220Z 07006KT 9000 FEW028 SCT150 03/M05 Q1026 BLU+
EDLW 211250Z 06009KT 030V090 CAVOK 02/M05 Q1024
EDDC 211250Z 07012KT 040V110 CAVOK 01/M06 Q1022 NOSIG
EDDL 211250Z 03011KT CAVOK 04/M04 Q1024 NOSIG
TAF EDDL 201100Z 2012/2118 02007KT 9999 FEW030
       
EDDE 211250Z 08010KT 040V100 9999 SCT020 SCT260 01/M04 Q1022 NOSIG
ETHS 211220Z 09007KT 9999 SCT036 SCT160 BKN240 02/M07 Q1026 BLU+BLU TEMPO BLU+
EDFH 211250Z 02011KT CAVOK 02/M07 Q1019
EDDF 211250Z 02013KT 350V060 CAVOK 04/M06 Q1021 TEMPO 03015G25KT
TAF EDDF 201100Z 2012/2118 03007KT 9999 FEW025 
     TEMPO 2012/2106 BKN030
       
EDNY 211250Z 01017KT 9999 FEW021 SCT029 00/M04 Q1016
ETHF 211220Z 05007KT 9999 FEW150 SCT200 03/M06 Q1023 BLU+BLU+
ETNG 211250Z 02008KT 9000 FEW030 04/M03 Q1024 NOSIG
TAF ETIC 201403Z 2014/2120 VRB06KT 9999 BKN015 QNH2995INS 
     TEMPO 2016/2020 9000 -SHSN BKN010 
     BECMG 2019/2020 VRB06KT 9999 SCT020 QNH3000INS 
     BECMG 2108/2109 06009KT 9999 SCT030 QNH3005INS TX01/2113Z TNM03/2106Z
       
EDDH 211250Z 04007KT 360V080 9999 FEW030 BKN042 03/M05 Q1027 NOSIG
TAF EDDH 201100Z 2012/2118 06009KT 9999 FEW035 
     BECMG 2018/2020 05004KT 
     TEMPO 2102/2109 4000 BR
       
EDHI 211250Z 07006KT 360V120 9999 BKN041 03/M05 Q1027
EDDV 211250Z 10010KT 9999 SCT037 SCT160 03/M06 Q1026 NOSIG
EDAH 211250Z 36006KT 320V020 9999 -SN BKN012 01/M00 Q1026
EDQM 211250Z 02012KT 6000 FEW015 M03/M07 Q1019
ETNH 211220Z 04008KT 9999 FEW019 BKN040 02/M02 Q1028 BLU BLU TEMPO WHT
ETSH 211220Z 07009KT 9999 FEW040 BKN200 03/M06 Q1024 BLU+BLU+
ETSI 211220Z 06007KT 9999 FEW020 01/M06 Q1018 BLU+BLU+
EDSB 211250Z 05014KT 9000 FEW033 04/M04 Q1019
EDVK 211250Z 05007KT 010V070 CAVOK 02/M05 Q1023
TAF AMD EDHK 211226Z 2112/2118 02004KT 9999 BKN040 
     TEMPO 2112/2115 BKN006
       
EDDK 211250Z 34007KT 300V010 CAVOK 06/M04 Q1023 NOSIG
TAF AMD EDDK 201305Z 2013/2118 28004KT 9999 FEW030 
     BECMG 2013/2016 02005KT
       
ETNL 211220Z 02005KT 9999 FEW018 BKN040 03/M02 Q1027 BLU BLU
ETSA 211220Z AUTO 36008KT //// // ////// M03/M05 Q1016 ///
ETHL 211251Z 05012KT 5000 BR OVC011 M03/M05 Q1016 GRN GRN BECMG WHT
ETSL 211253Z 02005KT 5000 BR OVC007 M03/M05 Q1016 GRN GRN BECMG WHT
EDDP 211250Z 07011KT 9999 FEW033 BKN260 02/M06 Q1024 NOSIG
EDHL 211250Z 03007KT 9999 SCT029 BKN043 03/M05 Q1027
EDFM 211250Z 36009KT 310V040 CAVOK 05/M05 Q1021
EDLN 211250Z 05011KT 7000 NSC 04/M05 Q1024
EDDM 211250Z 03005KT 340V080 8000 FEW012 01/M04 Q1017 NOSIG
TAF EDDM 201100Z 2012/2118 06003KT 4000 -SN BR OVC025 
     BECMG 2012/2015 36005KT 
     TEMPO 2012/2103 2000 -SN BR BKN008 
     PROB30 
     TEMPO 2012/2018 6000 
     BECMG 2107/2110 06005KT 9999
       
EDDG 211250Z 04007KT 360V090 CAVOK 03/M05 Q1025 NOSIG
ETSN 211220Z 22002KT 6000 FEW025 M00/M05 Q1018 WHT WHT BECMG BLU+
ETHN 211220Z 03010KT 9000 FEW015 M00/M05 Q1019 BLU+BLU+
ETMN 211220Z 08007KT 9999 FEW025 SCT150 03/M05 Q1027 BLU+BLU+ BECMG BLU
ETNN 211220Z 35006KT 8000 SCT270 04/M04 Q1023 BLU+BLU+
EDDN 211250Z 02007KT 330V090 CAVOK 03/M06 Q1019 R28/19//94 NOSIG
EDMO 211250Z 36007KT 4500 BR BKN007 BKN013 M02/M04 Q1016
EDLP 211250Z 08008KT 040V110 CAVOK 02/M06 Q1023
TAF AMD ETAR 201412Z 2014/2116 05009KT 9999 SCT030 QNH3000INS 
     BECMG 2106/2107 04012KT 9999 BKN020 QNH3017INS TX04/2015Z TNM02/2105Z
       
EDDR 211250Z 04010KT 360V070 CAVOK 04/M06 Q1019 NOSIG
ETNS 211220Z 05003KT 8000 FEW010 BKN040 02/M01 Q1028 BLU BLU
EDDB 211250Z 06009KT 9999 SCT042 BKN250 05/M06 Q1025 NOSIG
EDTY 211250Z /////KT 7000 NSC 00/M05 Q1019
EDOP 211250Z 02006KT 340V050 9999 BKN038 03/M05 Q1027
EDGS 211250Z 07010KT CAVOK 01/M12 Q1020
TAF ETAD 201110Z 2011/2117 03006KT 9999 SCT030 BKN070 QNH3002INS 
     TEMPO 2022/2103 5000 BR 
     BECMG 2105/2106 04010G15KT 9999 FEW030 QNH3016INS TX03/2014Z TNM02/2100Z
       
EDDS 211250Z 01010KT 350V050 9000 SCT020 01/M03 Q1017 NOSIG
EDDT 211250Z 03009KT 360V070 9999 SCT040 BKN250 04/M08 Q1025 NOSIG
EDXW 211250Z 10003KT 050V120 CAVOK 03/M01 Q1028
TAF ETOU 201109Z 2011/2117 02006KT 9000 HZ BKN030 BKN070 QNH3002INS 
     BECMG 2017/2018 03009KT 9999 NSW FEW030 QNH3009INS TX04/2014Z TNM02/2105Z
       
ETNT 211220Z 09006KT 9999 FEW025 BKN150 03/M04 Q1028 BLU BLU BECMG BLU+
ETNW 211220Z 09011KT 9999 FEW027 BKN160 03/M05 Q1026 BLU BLU+ TEMPO BLU